createdAt,value
2023-03-02T00:04:10.274Z,0.67
2023-03-02T00:09:13.013Z,0.74
2023-03-02T00:14:17.291Z,0.81
2023-03-02T00:19:20.527Z,0.86
2023-03-02T00:24:23.534Z,0.87
2023-03-02T00:29:28.292Z,0.84
2023-03-02T00:34:32.302Z,0.83
2023-03-02T00:39:35.356Z,0.82
2023-03-02T00:44:39.994Z,0.80
2023-03-02T00:49:45.459Z,0.76
2023-03-02T00:54:48.282Z,0.65
2023-03-02T00:59:53.536Z,0.57
2023-03-02T01:05:14.835Z,0.49
2023-03-02T01:10:17.993Z,0.40
2023-03-02T01:15:22.288Z,0.30
2023-03-02T01:20:25.065Z,0.31
2023-03-02T01:25:28.433Z,0.22
2023-03-02T01:30:32.534Z,0.20
2023-03-02T01:35:35.453Z,0.15
2023-03-02T01:40:38.385Z,0.06
2023-03-02T01:45:53.389Z,-0.02
2023-03-02T01:51:08.335Z,-0.10
2023-03-02T01:56:11.862Z,-0.12
2023-03-02T02:01:17.379Z,-0.21
2023-03-02T02:06:24.853Z,-0.34
2023-03-02T02:11:28.412Z,-0.40
2023-03-02T02:16:34.565Z,-0.50
2023-03-02T02:21:37.787Z,-0.56
2023-03-02T02:26:46.344Z,-0.57
2023-03-02T02:31:54.467Z,-0.64
2023-03-02T02:37:04.951Z,-0.72
2023-03-02T02:42:16.005Z,-0.88
2023-03-02T02:47:22.077Z,-0.94
2023-03-02T02:52:27.125Z,-0.96
2023-03-02T02:57:32.123Z,-1.03
2023-03-02T03:02:40.932Z,-1.08
2023-03-02T03:07:44.110Z,-1.12
2023-03-02T03:12:48.682Z,-1.15
2023-03-02T03:17:56.224Z,-1.21
2023-03-02T03:23:00.790Z,-1.23
2023-03-02T03:28:07.937Z,-1.24
2023-03-02T03:33:11.983Z,-1.32
2023-03-02T03:38:15.790Z,-1.45
2023-03-02T03:43:20.767Z,-1.47
2023-03-02T03:48:28.279Z,-1.59
2023-03-02T03:53:31.260Z,-1.74
2023-03-02T03:58:35.884Z,-1.76
2023-03-02T04:03:39.509Z,-1.85
2023-03-02T04:08:42.533Z,-1.96
2023-03-02T04:13:48.881Z,-1.96
2023-03-02T04:18:52.254Z,-1.98
2023-03-02T04:23:55.615Z,-2.02
2023-03-02T04:29:00.793Z,-2.05
2023-03-02T04:34:05.037Z,-2.08
2023-03-02T04:39:09.456Z,-2.07
2023-03-02T04:44:14.696Z,-2.10
2023-03-02T04:49:19.843Z,-2.14
2023-03-02T04:54:25.349Z,-2.20
2023-03-02T04:59:30.058Z,-2.24
2023-03-02T05:04:32.962Z,-2.31
2023-03-02T05:09:35.958Z,-2.36
2023-03-02T05:14:40.870Z,-2.38
2023-03-02T05:19:43.734Z,-2.42
2023-03-02T05:24:46.616Z,-2.44
2023-03-02T05:29:50.809Z,-2.53
2023-03-02T05:34:53.677Z,-2.55
2023-03-02T05:39:56.542Z,-2.58
2023-03-02T05:45:01.017Z,-2.65
2023-03-02T05:50:04.894Z,-2.64
2023-03-02T05:55:10.081Z,-2.61
2023-03-02T06:00:16.137Z,-2.61
2023-03-02T06:05:22.073Z,-2.64
2023-03-02T06:10:25.904Z,-2.62
2023-03-02T06:15:30.104Z,-2.56
2023-03-02T06:20:32.872Z,-2.57
2023-03-02T06:25:42.020Z,-2.44
2023-03-02T06:30:47.026Z,-2.35
2023-03-02T06:35:50.557Z,-2.22
2023-03-02T06:40:56.076Z,-2.03
2023-03-02T06:46:02.341Z,-1.88
2023-03-02T06:51:06.146Z,-1.66
2023-03-02T06:56:10.066Z,-1.41
2023-03-02T07:01:14.461Z,-1.17
2023-03-02T07:06:18.401Z,-0.79
2023-03-02T07:11:24.229Z,-0.34
2023-03-02T07:16:29.057Z,0.12
2023-03-02T07:21:32.217Z,0.51
2023-03-02T07:26:37.457Z,0.92
2023-03-02T07:31:44.275Z,1.12
2023-03-02T07:36:49.860Z,1.52
2023-03-02T07:41:53.095Z,1.88
2023-03-02T07:46:59.249Z,2.26
2023-03-02T07:52:02.436Z,2.48
2023-03-02T07:57:05.344Z,2.78
2023-03-02T08:02:15.419Z,2.84
2023-03-02T08:07:18.295Z,3.11
2023-03-02T08:12:22.198Z,3.33
2023-03-02T08:17:27.149Z,3.51
2023-03-02T08:22:31.383Z,3.78
2023-03-02T08:27:34.672Z,3.89
2023-03-02T08:32:39.199Z,4.08
2023-03-02T08:37:42.126Z,4.15
2023-03-02T08:42:44.853Z,4.58
2023-03-02T08:47:49.085Z,4.85
2023-03-02T08:52:52.820Z,4.83
2023-03-02T08:57:55.732Z,4.96
2023-03-02T09:03:00.110Z,5.20
2023-03-02T09:08:03.195Z,5.32
2023-03-02T09:13:08.536Z,5.44
2023-03-02T09:18:12.952Z,5.80
2023-03-02T09:23:15.845Z,5.93
2023-03-02T09:28:19.017Z,6.07
2023-03-02T09:33:23.202Z,6.27
2023-03-02T09:38:27.478Z,6.28
2023-03-02T09:43:44.623Z,6.42
2023-03-02T09:48:58.717Z,6.47
2023-03-02T09:54:08.758Z,6.77
2023-03-02T09:59:22.371Z,7.19
2023-03-02T10:04:29.297Z,7.54
2023-03-02T10:09:32.247Z,7.77
2023-03-02T10:14:42.034Z,7.89
2023-03-02T10:19:52.298Z,8.18
2023-03-02T10:25:08.015Z,8.44
2023-03-02T10:30:22.019Z,8.79
2023-03-02T10:35:31.306Z,8.84
2023-03-02T10:41:03.145Z,9.26
2023-03-02T10:46:08.770Z,9.35
2023-03-02T10:51:23.059Z,9.19
2023-03-02T10:56:26.041Z,9.49
2023-03-02T11:01:28.917Z,10.16
2023-03-02T11:06:33.573Z,10.29
2023-03-02T11:11:37.732Z,10.48
2023-03-02T11:16:40.879Z,10.82
2023-03-02T11:21:51.120Z,11.05
2023-03-02T11:26:58.216Z,10.98
2023-03-02T11:32:10.184Z,11.12
2023-03-02T11:37:19.562Z,11.68
2023-03-02T11:42:26.340Z,11.74
2023-03-02T11:47:33.433Z,12.06
2023-03-02T11:52:42.847Z,12.61
2023-03-02T11:57:49.861Z,13.06
2023-03-02T12:03:04.947Z,13.36
2023-03-02T12:08:25.283Z,13.86
2023-03-02T12:13:34.231Z,14.18
2023-03-02T12:18:47.528Z,14.87
2023-03-02T12:24:04.039Z,14.32
2023-03-02T12:29:23.552Z,15.19
2023-03-02T12:34:38.599Z,16.14
2023-03-02T12:40:13.321Z,16.25
2023-03-02T12:45:31.337Z,15.76
2023-03-02T12:50:39.535Z,16.81
2023-03-02T12:55:45.697Z,17.90
2023-03-02T13:00:53.055Z,17.86
2023-03-02T13:06:02.833Z,17.90
2023-03-02T13:11:07.508Z,16.81
2023-03-02T13:16:22.598Z,15.25
2023-03-02T13:21:30.866Z,14.26
2023-03-02T13:26:39.819Z,14.04
2023-03-02T13:31:44.425Z,13.24
2023-03-02T13:36:47.407Z,13.64
2023-03-02T13:41:56.950Z,13.19
2023-03-02T13:47:01.498Z,12.93
2023-03-02T13:52:09.184Z,12.60
2023-03-02T13:57:17.856Z,12.52
2023-03-02T14:02:25.439Z,12.25
2023-03-02T14:07:28.305Z,12.12
2023-03-02T14:12:33.942Z,11.78
2023-03-02T14:17:38.928Z,11.91
2023-03-02T14:22:42.429Z,11.66
2023-03-02T14:27:48.059Z,12.00
2023-03-02T14:32:51.113Z,11.73
2023-03-02T14:37:56.196Z,11.70
2023-03-02T14:43:00.801Z,11.61
2023-03-02T14:48:03.746Z,11.83
2023-03-02T14:53:17.476Z,11.67
2023-03-02T14:58:32.436Z,11.56
2023-03-02T15:03:35.335Z,11.60
2023-03-02T15:08:38.431Z,11.59
2023-03-02T15:13:45.366Z,11.38
2023-03-02T15:18:49.520Z,11.43
2023-03-02T15:23:52.520Z,11.26
2023-03-02T15:28:58.118Z,11.03
2023-03-02T15:34:00.997Z,11.15
2023-03-02T15:39:04.428Z,11.21
2023-03-02T15:44:09.329Z,11.09
2023-03-02T15:49:12.211Z,11.14
2023-03-02T15:54:15.020Z,10.77
2023-03-02T15:59:19.631Z,10.38
2023-03-02T16:04:26.133Z,10.36
2023-03-02T16:09:30.942Z,10.11
2023-03-02T16:14:36.155Z,10.08
2023-03-02T16:19:42.457Z,9.91
2023-03-02T16:24:45.477Z,9.70
2023-03-02T16:29:49.680Z,9.58
2023-03-02T16:34:55.246Z,9.37
2023-03-02T16:39:58.225Z,9.22
2023-03-02T16:45:02.431Z,9.08
2023-03-02T16:50:07.090Z,8.93
2023-03-02T16:55:16.769Z,8.77
2023-03-02T17:00:22.732Z,8.59
2023-03-02T17:05:27.030Z,8.37
2023-03-02T17:10:30.384Z,8.16
2023-03-02T17:15:36.472Z,7.96
2023-03-02T17:20:39.801Z,7.75
2023-03-02T17:25:42.533Z,7.67
2023-03-02T17:30:46.956Z,7.58
2023-03-02T17:35:50.160Z,7.44
2023-03-02T17:40:53.606Z,7.18
2023-03-02T17:45:57.931Z,6.90
2023-03-02T17:51:01.344Z,6.59
2023-03-02T17:56:04.251Z,6.36
2023-03-02T18:48:02.347Z,4.02
2023-03-02T18:53:05.116Z,3.93
2023-03-02T18:58:10.836Z,3.69
2023-03-02T19:03:16.005Z,3.52
2023-03-02T19:08:20.618Z,3.41
2023-03-02T19:13:24.389Z,3.30
2023-03-02T19:18:30.941Z,3.20
2023-03-02T19:23:34.392Z,3.09
2023-03-02T19:28:38.458Z,3.03
2023-03-02T19:33:45.125Z,2.93
2023-03-02T19:38:48.462Z,2.73
2023-03-02T19:43:52.698Z,2.69
2023-03-02T19:48:56.962Z,2.56
2023-03-02T19:54:00.663Z,2.46
2023-03-02T19:59:03.644Z,2.35
2023-03-02T20:04:08.055Z,2.30
2023-03-02T20:09:13.048Z,2.17
2023-03-02T20:14:31.237Z,2.17
2023-03-02T20:19:37.151Z,2.11
2023-03-02T20:24:40.356Z,2.02
2023-03-02T20:29:44.196Z,2.02
2023-03-02T20:34:48.620Z,2.16
2023-03-02T20:39:51.972Z,2.27
2023-03-02T20:44:56.346Z,2.21
2023-03-02T20:50:00.877Z,1.90
2023-03-02T20:55:04.143Z,1.78
2023-03-02T21:00:11.878Z,1.76
2023-03-02T21:05:17.130Z,1.66
2023-03-02T21:10:25.742Z,1.64
2023-03-02T21:15:29.514Z,1.48
2023-03-02T21:20:36.711Z,1.39
2023-03-02T21:25:42.112Z,1.40
2023-03-02T21:30:45.150Z,1.28
2023-03-02T21:35:49.295Z,1.08
2023-03-02T21:40:52.122Z,1.07
2023-03-02T21:45:55.395Z,0.99
2023-03-02T21:50:59.892Z,0.95
2023-03-02T21:56:02.726Z,0.83
2023-03-02T22:01:05.973Z,0.79
2023-03-02T22:06:15.825Z,0.77
2023-03-02T22:11:22.653Z,0.80
2023-03-02T22:16:28.064Z,0.81
2023-03-02T22:21:34.682Z,0.72
2023-03-02T22:26:40.250Z,0.63
2023-03-02T22:31:47.511Z,0.60
2023-03-02T22:36:51.767Z,0.51
2023-03-02T22:41:57.768Z,0.46
2023-03-02T22:47:01.160Z,0.33
2023-03-02T22:52:14.113Z,0.35
2023-03-02T22:57:32.101Z,0.32
2023-03-02T23:02:38.116Z,0.25
2023-03-02T23:07:42.341Z,0.13
2023-03-02T23:12:45.621Z,0.15
2023-03-02T23:17:48.508Z,0.06
2023-03-02T23:22:52.632Z,-0.02
2023-03-02T23:27:55.637Z,-0.15
2023-03-02T23:32:58.479Z,-0.20
2023-03-02T23:38:02.866Z,-0.16
2023-03-02T23:43:05.830Z,-0.21
2023-03-02T23:48:08.875Z,-0.29
2023-03-02T23:53:13.464Z,-0.29
2023-03-02T23:58:16.440Z,-0.30
